Time;durP1;ratioP1;P1;durP2;ratioP2;P2;SDS_P1;SDS_P2;PMS_P1;PMS_P2;Temp;Humidity;BMP_temperature;BMP_pressure;BME280_temperature;BME280_humidity;BME280_pressure;Samples;Min_cycle;Max_cycle;Signal;HPM_P1;HPM_P2
2022/03/09 00:00:07;;;;;;;11.90;7.10;;;;;;;2.06;48.97;151896.28;5064674;28;20446;-77
2022/03/09 00:02:43;;;;;;;8.77;6.67;;;;;;;2.10;49.33;151905.25;5063870;28;20486;-77
2022/03/09 00:05:19;;;;;;;11.57;7.20;;;;;;;1.92;49.46;151860.28;5044731;28;20816;-77
2022/03/09 00:07:54;;;;;;;9.23;5.93;;;;;;;1.91;49.52;151856.44;5064009;28;20441;-77
2022/03/09 00:10:30;;;;;;;8.70;6.90;;;;;;;1.83;49.47;151837.13;5064813;28;20857;-78
2022/03/09 00:13:05;;;;;;;7.80;6.80;;;;;;;1.78;50.31;151824.25;5070030;28;20441;-78
2022/03/09 00:15:41;;;;;;;9.40;7.23;;;;;;;1.73;50.17;151811.41;5056887;28;20446;-76
2022/03/09 00:18:19;;;;;;;8.50;6.53;;;;;;;1.74;50.48;151814.00;5070448;28;20825;-78
2022/03/09 00:20:55;;;;;;;8.20;6.87;;;;;;;1.72;50.67;151808.88;5071863;28;20488;-77
2022/03/09 00:23:30;;;;;;;8.60;6.80;;;;;;;1.68;50.49;151798.56;5070847;28;20456;-77
2022/03/09 00:26:06;;;;;;;9.73;6.80;;;;;;;1.64;50.45;151789.56;5071256;28;20544;-78
2022/03/09 00:28:42;;;;;;;8.90;7.00;;;;;;;1.62;51.20;151783.13;5053465;28;20457;-77
2022/03/09 00:31:18;;;;;;;10.33;6.80;;;;;;;1.60;50.49;151778.00;5063298;28;20859;-78
2022/03/09 00:33:55;;;;;;;8.10;6.10;;;;;;;1.56;50.68;151767.75;5050514;28;20443;-78
2022/03/09 00:36:30;;;;;;;10.10;6.93;;;;;;;1.51;50.72;151754.91;5081619;28;20442;-77
2022/03/09 00:39:06;;;;;;;11.00;6.87;;;;;;;1.53;50.76;151760.03;5055548;28;20453;-76
2022/03/09 00:41:41;;;;;;;8.30;6.30;;;;;;;1.53;51.34;151760.03;5068624;28;20446;-78
2022/03/09 00:44:17;;;;;;;17.43;6.73;;;;;;;1.51;51.08;151754.91;5066883;28;20712;-78
2022/03/09 00:46:52;;;;;;;9.87;6.83;;;;;;;1.49;50.92;151751.03;5069603;28;20474;-78
2022/03/09 00:49:29;;;;;;;8.10;6.50;;;;;;;1.49;51.38;151751.03;5068850;28;20476;-78
2022/03/09 00:52:05;;;;;;;9.37;6.23;;;;;;;1.78;50.38;151824.25;5054835;28;20443;-78
2022/03/09 00:54:41;;;;;;;8.93;6.20;;;;;;;1.80;50.34;151829.44;5070263;28;20458;-78
2022/03/09 00:57:17;;;;;;;8.50;5.97;;;;;;;1.68;50.67;151798.56;5084737;28;20936;-78
2022/03/09 00:59:52;;;;;;;8.73;6.23;;;;;;;1.63;50.83;151785.72;5053403;28;20949;-78
2022/03/09 01:02:28;;;;;;;6.90;5.80;;;;;;;1.56;50.98;151769.00;5070631;28;20442;-77
2022/03/09 01:05:06;;;;;;;8.80;5.90;;;;;;;1.47;51.62;151744.59;5070677;28;20445;-77
2022/03/09 01:07:42;;;;;;;6.50;5.80;;;;;;;1.47;51.29;151744.59;5069127;28;20454;-78
2022/03/09 01:10:18;;;;;;;8.53;5.20;;;;;;;1.63;50.92;151785.72;5062711;28;20538;-77
2022/03/09 01:12:53;;;;;;;8.63;5.77;;;;;;;1.80;50.02;151830.69;5072077;28;20446;-77
2022/03/09 01:15:29;;;;;;;7.50;5.87;;;;;;;1.75;50.28;151816.56;5086614;28;20453;-77
2022/03/09 01:18:05;;;;;;;11.57;6.37;;;;;;;1.51;51.18;151756.16;5071567;28;20497;-77
2022/03/09 01:20:42;;;;;;;8.13;5.80;;;;;;;1.39;51.56;151725.34;5062858;28;20453;-77
2022/03/09 01:23:17;;;;;;;8.23;5.67;;;;;;;1.47;51.15;151745.91;5071024;28;20541;-77
2022/03/09 01:25:53;;;;;;;10.27;6.13;;;;;;;1.68;50.44;151798.56;5050042;28;20492;-77
2022/03/09 01:28:29;;;;;;;7.13;5.60;;;;;;;1.70;50.68;151805.00;5067276;28;20797;-77
2022/03/09 01:31:04;;;;;;;8.33;6.03;;;;;;;1.80;50.20;151829.44;5055629;28;20469;-77
2022/03/09 01:33:40;;;;;;;6.40;5.03;;;;;;;1.83;50.09;151838.41;5067499;28;20461;-77
2022/03/09 01:36:17;;;;;;;8.90;5.80;;;;;;;1.66;50.72;151794.75;5071188;28;20464;-77
2022/03/09 01:38:53;;;;;;;7.30;6.03;;;;;;;1.55;50.76;151765.16;5067934;28;20514;-77
2022/03/09 01:41:28;;;;;;;10.17;6.57;;;;;;;1.63;50.61;151785.72;5088342;28;20453;-77
2022/03/09 01:44:11;;;;;;;7.33;5.80;;;;;;;1.56;50.60;151769.00;5049498;28;20439;-77
2022/03/09 01:46:47;;;;;;;10.73;6.20;;;;;;;1.58;50.63;151774.19;5051708;28;20473;-77
2022/03/09 01:49:24;;;;;;;7.90;6.10;;;;;;;1.58;50.68;151774.19;5069271;28;20527;-77
2022/03/09 01:52:01;;;;;;;8.03;6.00;;;;;;;1.50;50.88;151753.63;5054656;28;20997;-77
2022/03/09 01:54:36;;;;;;;7.57;5.70;;;;;;;1.41;51.13;151729.16;5055532;28;20471;-77
2022/03/09 01:57:12;;;;;;;7.47;6.00;;;;;;;1.22;51.18;151682.94;5052314;28;20465;-77
2022/03/09 01:59:48;;;;;;;7.73;5.50;;;;;;;1.17;52.03;151668.78;5055747;28;20460;-77
2022/03/09 02:02:25;;;;;;;8.57;6.17;;;;;;;1.31;51.40;151703.50;5069095;28;20444;-76
2022/03/09 02:05:00;;;;;;;8.70;5.90;;;;;;;1.22;51.82;151682.94;5088623;28;20441;-76
2022/03/09 02:10:32;;;;;;;8.60;6.03;;;;;;;0.98;52.71;151621.28;5051428;28;20864;-77
2022/03/09 02:13:08;;;;;;;8.57;6.23;;;;;;;0.89;52.91;151598.19;5082726;28;20456;-77
2022/03/09 02:15:44;;;;;;;10.93;7.60;;;;;;;0.79;53.97;151571.22;5050695;28;20449;-77
2022/03/09 02:18:19;;;;;;;9.10;6.70;;;;;;;0.72;54.44;151554.50;5069102;28;20440;-77
2022/03/09 02:20:56;;;;;;;12.40;7.20;;;;;;;0.63;53.78;151531.41;5067553;28;20455;-77
2022/03/09 02:23:33;;;;;;;12.97;7.20;;;;;;;0.57;54.36;151516.00;5069676;28;20454;-77
2022/03/09 02:26:09;;;;;;;11.00;7.10;;;;;;;0.56;54.44;151513.41;5065093;28;20467;-76
2022/03/09 02:28:47;;;;;;;8.67;6.67;;;;;;;0.57;54.84;151516.00;5052315;28;20444;-76
2022/03/09 02:31:22;;;;;;;7.97;6.60;;;;;;;0.55;54.08;151512.16;5069746;28;20483;-76
2022/03/09 02:33:58;;;;;;;8.60;5.90;;;;;;;0.56;54.07;151513.41;5067524;28;20716;-77
2022/03/09 02:36:34;;;;;;;9.90;6.00;;;;;;;0.64;54.23;151533.94;5050046;28;20451;-76
2022/03/09 02:39:11;;;;;;;7.47;6.53;;;;;;;0.61;54.73;151527.53;5065658;28;20450;-77
2022/03/09 02:41:46;;;;;;;11.47;7.10;;;;;;;0.61;54.41;151527.53;5063737;28;20445;-77
2022/03/09 02:44:22;;;;;;;8.60;6.13;;;;;;;0.65;53.94;151535.25;5071323;28;20529;-76
2022/03/09 02:46:58;;;;;;;8.73;6.47;;;;;;;0.64;54.04;151533.94;5063922;28;20461;-77
2022/03/09 02:49:34;;;;;;;9.73;6.57;;;;;;;0.61;54.10;151526.25;5057056;28;20465;-76
2022/03/09 02:52:10;;;;;;;8.77;5.97;;;;;;;0.60;54.02;151523.72;5067021;28;20436;-76
2022/03/09 02:54:47;;;;;;;7.67;5.63;;;;;;;0.61;54.32;151526.25;5068309;28;20440;-76
2022/03/09 02:57:22;;;;;;;8.17;5.83;;;;;;;0.60;53.85;151525.00;5084310;28;20768;-76
2022/03/09 02:59:58;;;;;;;12.63;7.00;;;;;;;0.58;54.14;151518.59;5069513;28;20570;-76
2022/03/09 03:02:33;;;;;;;10.60;6.60;;;;;;;0.71;53.64;151551.97;5069854;28;20433;-76
2022/03/09 03:05:10;;;;;;;7.60;6.70;;;;;;;0.89;53.33;151596.88;5064266;28;20454;-76
2022/03/09 03:07:46;;;;;;;8.60;6.10;;;;;;;0.64;53.92;151533.94;5065329;28;20499;-76
2022/03/09 03:10:23;;;;;;;8.43;6.40;;;;;;;0.58;54.14;151518.59;5064458;28;20854;-76
2022/03/09 03:12:58;;;;;;;9.40;6.70;;;;;;;0.62;54.04;151528.81;5052368;28;20552;-76
2022/03/09 03:15:34;;;;;;;8.47;6.70;;;;;;;0.71;54.13;151550.66;5052906;28;20463;-76
2022/03/09 03:18:09;;;;;;;7.73;5.90;;;;;;;0.75;53.44;151562.22;5047430;28;20445;-76
2022/03/09 03:20:46;;;;;;;8.77;6.60;;;;;;;0.61;54.32;151527.53;5050912;28;20449;-76
2022/03/09 03:23:22;;;;;;;11.73;7.07;;;;;;;0.54;54.33;151508.28;5069279;28;20938;-76
2022/03/09 03:26:01;;;;;;;7.17;5.70;;;;;;;0.43;54.79;151480.03;5055058;28;20459;-76
2022/03/09 03:28:36;;;;;;;7.27;6.57;;;;;;;0.37;55.29;151464.66;5068026;28;21334;-76
2022/03/09 03:31:12;;;;;;;7.20;6.00;;;;;;;0.27;55.45;151440.25;5048848;28;20459;-76
2022/03/09 03:33:48;;;;;;;13.20;7.80;;;;;;;0.22;56.01;151426.13;5066743;28;20457;-76
2022/03/09 03:36:24;;;;;;;9.90;7.70;;;;;;;0.16;56.47;151412.00;5082952;28;20769;-76
2022/03/09 03:38:59;;;;;;;7.83;6.83;;;;;;;0.10;56.13;151396.63;5066810;28;20441;-76
2022/03/09 03:41:36;;;;;;;9.83;6.70;;;;;;;0.05;56.75;151382.50;5068239;28;20453;-76
2022/03/09 03:44:12;;;;;;;9.80;7.40;;;;;;;0.04;56.81;151379.94;5043894;28;20459;-76
2022/03/09 03:46:48;;;;;;;10.73;6.90;;;;;;;-0.03;56.76;151363.28;5066457;28;20480;-76
2022/03/09 03:49:24;;;;;;;10.17;6.97;;;;;;;-0.09;57.22;151349.16;5071182;28;20454;-76
2022/03/09 03:51:59;;;;;;;8.80;7.00;;;;;;;-0.12;57.01;151341.44;5052534;28;20943;-76
2022/03/09 03:54:35;;;;;;;12.63;7.27;;;;;;;-0.08;56.67;151350.44;5071840;28;20450;-76
2022/03/09 03:57:12;;;;;;;11.10;6.67;;;;;;;-0.11;56.77;151342.75;5071390;28;20447;-76
2022/03/09 03:59:47;;;;;;;11.97;6.57;;;;;;;-0.09;57.20;151347.88;5070745;28;20480;-76
2022/03/09 04:02:23;;;;;;;9.70;6.77;;;;;;;-0.13;56.99;151338.88;5067323;28;20515;-76
2022/03/09 04:04:58;;;;;;;11.00;7.27;;;;;;;-0.20;57.50;151320.91;5069855;28;20450;-76
2022/03/09 04:07:34;;;;;;;10.00;6.20;;;;;;;-0.26;57.65;151304.22;5071730;28;20552;-76
2022/03/09 04:10:10;;;;;;;12.00;8.50;;;;;;;-0.26;57.22;151304.22;5056757;28;20476;-76
2022/03/09 04:12:47;;;;;;;15.63;7.77;;;;;;;-0.32;57.62;151290.09;5069469;28;20468;-76
2022/03/09 04:15:23;;;;;;;12.40;7.10;;;;;;;-0.41;57.62;151265.75;5056605;28;20462;-76
2022/03/09 04:17:59;;;;;;;9.77;7.20;;;;;;;-0.46;57.93;151254.22;5087514;28;20789;-76
2022/03/09 04:20:34;;;;;;;10.53;7.90;;;;;;;-0.52;58.61;151238.81;5055936;28;20444;-75
2022/03/09 04:23:10;;;;;;;10.13;6.97;;;;;;;-0.55;58.78;151231.13;5071962;28;20440;-76
2022/03/09 04:25:46;;;;;;;9.23;7.10;;;;;;;-0.61;58.77;151215.75;5087926;28;20447;-75
2022/03/09 04:28:23;;;;;;;12.77;7.17;;;;;;;-0.59;59.38;151219.59;5072839;28;20546;-77
2022/03/09 04:30:59;;;;;;;9.80;7.10;;;;;;;-0.58;58.96;151223.41;5054717;28;20469;-76
2022/03/09 04:33:34;;;;;;;11.77;7.13;;;;;;;-0.62;58.67;151214.47;5069504;28;20428;-75
2022/03/09 04:36:10;;;;;;;13.90;7.20;;;;;;;-0.65;58.95;151206.75;5062128;28;20473;-76
2022/03/09 04:38:46;;;;;;;12.33;8.00;;;;;;;-0.61;59.54;151217.00;5070505;28;20436;-76
2022/03/09 04:41:22;;;;;;;11.03;7.47;;;;;;;-0.59;58.82;151219.59;5064126;28;20532;-75
2022/03/09 04:43:59;;;;;;;10.97;7.03;;;;;;;-0.61;59.46;151215.75;5071949;28;20454;-75
2022/03/09 04:46:34;;;;;;;10.37;7.93;;;;;;;-0.68;59.32;151199.06;5069258;28;20467;-76
2022/03/09 04:49:10;;;;;;;11.50;7.73;;;;;;;-0.70;59.45;151193.94;5068703;28;20833;-75
2022/03/09 04:51:46;;;;;;;9.00;7.03;;;;;;;-0.68;59.32;151197.78;5066429;28;20925;-77
2022/03/09 04:54:22;;;;;;;15.07;8.10;;;;;;;-0.73;59.74;151186.25;5067460;28;20545;-76
2022/03/09 04:56:57;;;;;;;9.03;6.23;;;;;;;-0.77;60.34;151175.97;5071594;28;20448;-75
2022/03/09 04:59:34;;;;;;;12.90;7.50;;;;;;;-0.78;59.97;151172.13;5066531;28;20454;-77
2022/03/09 05:02:10;;;;;;;12.63;7.53;;;;;;;-0.81;60.62;151165.72;5074864;28;20835;-77
2022/03/09 05:04:45;;;;;;;10.70;7.20;;;;;;;-0.82;60.40;151161.91;5050133;28;20453;-77
2022/03/09 05:07:21;;;;;;;11.97;7.97;;;;;;;-0.82;60.71;151161.91;5087777;28;20470;-77
2022/03/09 05:09:56;;;;;;;9.90;7.03;;;;;;;-0.84;60.52;151156.72;5070085;28;20847;-77
2022/03/09 05:12:32;;;;;;;10.60;7.07;;;;;;;-0.84;60.58;151156.72;5069970;28;20454;-77
2022/03/09 05:15:10;;;;;;;10.67;8.07;;;;;;;-0.87;60.55;151149.03;5045764;28;21030;-76
2022/03/09 05:17:45;;;;;;;10.60;7.10;;;;;;;-0.91;60.74;151140.09;5061116;28;20458;-77
2022/03/09 05:20:21;;;;;;;11.47;7.03;;;;;;;-0.91;61.02;151138.78;5070521;28;20433;-77
2022/03/09 05:22:57;;;;;;;8.70;6.77;;;;;;;-0.94;61.46;151132.38;5069867;28;20537;-77
2022/03/09 05:25:33;;;;;;;11.00;6.43;;;;;;;-0.98;60.93;151120.88;5070422;28;20450;-77
2022/03/09 05:28:09;;;;;;;11.80;8.27;;;;;;;-0.99;61.41;151118.28;5051863;28;20468;-77
2022/03/09 05:30:46;;;;;;;9.20;7.10;;;;;;;-0.99;61.31;151118.28;5054511;28;20868;-77
2022/03/09 05:33:21;;;;;;;10.20;7.13;;;;;;;-1.04;61.03;151106.75;5067243;28;20505;-77
2022/03/09 05:35:57;;;;;;;11.40;6.87;;;;;;;-1.09;61.50;151092.66;5068891;28;20473;-77
2022/03/09 05:38:32;;;;;;;14.57;8.20;;;;;;;-1.12;61.50;151084.97;5070779;28;20442;-77
2022/03/09 05:41:09;;;;;;;10.40;7.27;;;;;;;-1.20;61.25;151064.44;5070381;28;20456;-77
2022/03/09 05:43:44;;;;;;;10.27;7.20;;;;;;;-1.29;61.21;151042.66;5052571;28;20453;-77
2022/03/09 05:46:24;;;;;;;10.93;7.50;;;;;;;-1.33;62.38;151033.69;5068351;28;20457;-77
2022/03/09 05:48:59;;;;;;;10.33;6.90;;;;;;;-1.34;62.96;151031.13;5049782;28;20445;-77
2022/03/09 05:51:35;;;;;;;10.13;6.90;;;;;;;-1.37;63.14;151023.44;5045894;28;20489;-77
2022/03/09 05:54:11;;;;;;;7.97;6.77;;;;;;;-1.40;63.26;151014.44;5042367;28;20431;-77
2022/03/09 05:56:47;;;;;;;9.50;6.50;;;;;;;-1.42;62.83;151010.63;5066083;28;20456;-77
2022/03/09 05:59:22;;;;;;;10.83;7.20;;;;;;;-1.41;63.11;151013.19;5029805;28;20461;-77
2022/03/09 06:01:59;;;;;;;10.87;7.13;;;;;;;-1.40;62.72;151014.44;5031317;28;20474;-76
2022/03/09 06:04:35;;;;;;;12.47;7.93;;;;;;;-1.36;62.59;151024.72;5041921;28;20527;-76
2022/03/09 06:07:11;;;;;;;10.27;7.40;;;;;;;-1.36;62.54;151026.00;5045203;28;20547;-76
2022/03/09 06:09:49;;;;;;;11.27;7.60;;;;;;;-1.32;62.96;151036.22;5043257;28;20917;-76
2022/03/09 06:12:25;;;;;;;11.27;7.30;;;;;;;-1.34;63.42;151031.13;5027218;28;20824;-76
2022/03/09 06:15:01;;;;;;;10.70;7.13;;;;;;;-1.30;63.03;151041.34;5062647;28;20785;-76
2022/03/09 06:17:49;;;;;;;12.53;7.50;;;;;;;-1.24;63.21;151055.44;5060086;28;20716;-75
2022/03/09 06:20:25;;;;;;;13.17;7.83;;;;;;;-1.17;62.95;151072.13;5042811;28;20457;-76
2022/03/09 06:23:01;;;;;;;10.13;7.37;;;;;;;-1.11;62.89;151087.53;5041228;28;20461;-76
2022/03/09 06:25:37;;;;;;;12.03;8.20;;;;;;;-0.98;63.48;151122.09;5045997;28;20530;-76
2022/03/09 06:28:12;;;;;;;11.13;8.30;;;;;;;-0.92;62.78;151137.50;5039434;28;20833;-76
2022/03/09 06:30:48;;;;;;;12.70;7.43;;;;;;;-0.80;63.12;151167.00;5021430;28;20716;-76
2022/03/09 06:33:26;;;;;;;13.23;9.07;;;;;;;-0.66;62.59;151202.88;5042363;28;20822;-76
2022/03/09 06:36:02;;;;;;;9.27;7.80;;;;;;;-0.48;62.23;151249.09;5045229;28;20534;-76
2022/03/09 06:38:37;;;;;;;15.23;8.57;;;;;;;-0.33;62.73;151287.56;5044952;28;20574;-76
2022/03/09 06:41:13;;;;;;;12.20;8.00;;;;;;;-0.10;61.69;151346.56;5038540;28;20455;-76
2022/03/09 06:43:49;;;;;;;16.33;8.80;;;;;;;0.19;61.70;151418.41;5040804;28;20459;-76
2022/03/09 06:46:24;;;;;;;13.87;9.10;;;;;;;0.41;60.67;151474.91;5025625;28;20454;-76
2022/03/09 06:49:02;;;;;;;14.20;8.90;;;;;;;0.62;59.39;151528.81;5042067;28;20473;-75
2022/03/09 06:51:38;;;;;;;10.53;8.20;;;;;;;0.88;59.45;151595.59;5047891;28;20453;-75
2022/03/09 06:54:13;;;;;;;12.97;9.13;;;;;;;1.10;57.68;151650.84;5064677;28;20441;-76
2022/03/09 06:56:51;;;;;;;11.03;8.40;;;;;;;1.25;57.21;151689.34;5065030;28;20451;-75
2022/03/09 06:59:28;;;;;;;11.50;7.93;;;;;;;1.46;57.17;151742.00;5062775;28;20451;-75
2022/03/09 07:02:04;;;;;;;12.40;9.00;;;;;;;1.73;56.25;151812.72;5046868;28;20973;-75
2022/03/09 07:04:41;;;;;;;12.40;8.83;;;;;;;1.97;55.51;151871.81;5066641;28;20534;-75
2022/03/09 07:07:16;;;;;;;10.23;7.57;;;;;;;2.16;55.02;151920.69;5062135;28;20803;-75
2022/03/09 07:09:52;;;;;;;13.47;9.37;;;;;;;2.33;54.69;151964.44;5065244;28;20447;-75
2022/03/09 07:12:28;;;;;;;12.53;8.93;;;;;;;2.49;53.88;152004.28;5063382;28;20812;-76
2022/03/09 07:15:04;;;;;;;11.33;8.40;;;;;;;2.70;53.47;152058.31;5062075;28;20442;-76
2022/03/09 07:17:40;;;;;;;12.43;9.17;;;;;;;2.85;53.53;152096.88;5054442;28;20844;-76
2022/03/09 07:20:19;;;;;;;11.33;8.90;;;;;;;3.13;52.96;152168.91;5063162;28;20449;-76
2022/03/09 07:22:55;;;;;;;11.57;8.93;;;;;;;3.37;51.86;152230.69;5058872;28;20466;-76
2022/03/09 07:25:30;;;;;;;12.93;9.37;;;;;;;3.53;51.51;152271.88;5060434;28;20512;-76
2022/03/09 07:28:07;;;;;;;12.10;8.13;;;;;;;3.62;50.84;152295.06;5059932;28;20477;-76
2022/03/09 07:30:42;;;;;;;12.10;9.70;;;;;;;3.58;50.28;152283.47;5061844;28;20793;-76
2022/03/09 07:33:18;;;;;;;12.00;8.97;;;;;;;3.64;50.52;152300.22;5061668;28;20944;-76
2022/03/09 07:35:56;;;;;;;11.37;8.20;;;;;;;3.84;50.44;152349.16;5058941;28;20444;-76
2022/03/09 07:38:32;;;;;;;15.37;9.10;;;;;;;3.94;49.19;152374.88;5057602;28;20439;-75
2022/03/09 07:41:07;;;;;;;10.83;8.53;;;;;;;4.10;48.59;152417.34;5045915;28;20460;-76
2022/03/09 07:43:43;;;;;;;12.00;9.07;;;;;;;4.37;47.48;152485.63;5057622;28;21014;-76
2022/03/09 07:46:19;;;;;;;11.00;8.23;;;;;;;4.56;47.95;152534.59;5072693;28;20462;-76
2022/03/09 07:48:54;;;;;;;10.00;8.23;;;;;;;4.85;46.83;152609.31;5057594;28;20499;-76
2022/03/09 07:51:31;;;;;;;15.03;9.90;;;;;;;4.91;47.26;152624.78;5058828;28;20463;-76
2022/03/09 07:54:07;;;;;;;13.07;8.40;;;;;;;5.13;46.88;152680.22;5044085;28;20453;-76
2022/03/09 07:56:43;;;;;;;10.37;7.77;;;;;;;5.29;47.19;152720.19;5043372;28;20449;-76
2022/03/09 07:59:19;;;;;;;12.20;8.40;;;;;;;5.33;46.15;152731.78;5041853;28;20827;-76
2022/03/09 08:01:55;;;;;;;10.40;8.23;;;;;;;5.48;46.14;152769.19;5060641;28;20449;-75
2022/03/09 08:04:30;;;;;;;13.47;8.87;;;;;;;5.84;44.91;152862.00;5057236;28;20453;-76
2022/03/09 08:07:07;;;;;;;11.40;9.13;;;;;;;5.83;45.24;152859.41;5060048;28;20499;-76
2022/03/09 08:09:43;;;;;;;11.43;9.13;;;;;;;6.12;44.14;152932.97;5040328;28;20442;-77
2022/03/09 08:12:18;;;;;;;12.47;9.60;;;;;;;6.01;45.25;152904.66;5044284;28;20458;-77
2022/03/09 08:14:54;;;;;;;11.97;9.00;;;;;;;5.90;44.77;152876.25;5062074;28;20450;-77
2022/03/09 08:17:29;;;;;;;13.37;9.70;;;;;;;6.08;44.29;152923.97;5061306;28;20461;-77
2022/03/09 08:20:06;;;;;;;13.50;9.60;;;;;;;6.08;44.81;152923.97;5062916;28;20442;-78
2022/03/09 08:22:43;;;;;;;12.17;9.60;;;;;;;6.17;43.91;152944.63;5060354;28;20952;-77
2022/03/09 08:25:19;;;;;;;11.60;9.37;;;;;;;6.11;45.20;152930.44;5045127;28;20843;-78
2022/03/09 08:27:55;;;;;;;11.37;9.30;;;;;;;6.12;44.93;152932.97;5061511;28;20465;-78
2022/03/09 08:30:30;;;;;;;10.23;9.10;;;;;;;6.07;44.91;152920.09;5060040;28;20506;-77
2022/03/09 08:33:06;;;;;;;13.30;10.30;;;;;;;6.08;45.38;152923.97;5063597;28;20788;-77
2022/03/09 08:35:41;;;;;;;13.83;9.90;;;;;;;5.98;45.01;152898.16;5049492;28;21013;-75
2022/03/09 08:38:18;;;;;;;13.40;10.60;;;;;;;6.00;45.52;152903.34;5053489;28;20453;-75
2022/03/09 08:40:54;;;;;;;14.83;10.27;;;;;;;6.25;44.78;152965.28;5048798;28;20446;-75
2022/03/09 08:43:30;;;;;;;14.90;10.73;;;;;;;6.36;44.48;152994.91;5049705;28;21066;-75
2022/03/09 08:46:06;;;;;;;11.57;10.17;;;;;;;6.67;43.82;153073.66;5050731;28;20463;-75
2022/03/09 08:48:43;;;;;;;13.60;11.00;;;;;;;6.41;45.33;153006.53;5069078;28;20465;-75
2022/03/09 08:51:21;;;;;;;13.50;10.37;;;;;;;6.31;45.58;152980.72;5069496;28;20544;-75
2022/03/09 08:53:58;;;;;;;12.43;10.90;;;;;;;6.30;44.90;152979.41;5066164;28;20450;-75
2022/03/09 08:56:33;;;;;;;13.53;11.00;;;;;;;6.20;45.23;152952.31;5046082;28;20457;-75
2022/03/09 08:59:09;;;;;;;14.73;10.53;;;;;;;6.22;45.63;152958.81;5066229;28;20426;-75
2022/03/09 09:01:45;;;;;;;16.20;11.07;;;;;;;6.16;45.07;152942.03;5064695;28;20449;-75
2022/03/09 09:04:20;;;;;;;13.40;10.30;;;;;;;6.07;45.35;152920.09;5066583;28;20462;-75
2022/03/09 09:06:56;;;;;;;14.13;11.00;;;;;;;6.07;44.74;152921.38;5063434;28;20529;-74
2022/03/09 09:09:33;;;;;;;12.40;10.33;;;;;;;6.05;45.69;152914.94;5067421;28;20465;-75
2022/03/09 09:12:10;;;;;;;11.83;9.33;;;;;;;6.51;44.08;153032.38;5046753;28;20507;-75
2022/03/09 09:14:46;;;;;;;12.40;9.53;;;;;;;6.34;45.06;152988.47;5066079;28;20463;-75
2022/03/09 09:17:21;;;;;;;14.13;9.70;;;;;;;6.12;45.98;152934.28;5064236;28;20461;-74
2022/03/09 09:19:57;;;;;;;12.67;9.87;;;;;;;6.22;44.69;152957.53;5048651;28;20446;-75
2022/03/09 09:22:33;;;;;;;13.27;9.60;;;;;;;6.26;44.92;152969.13;5066755;28;20519;-75
2022/03/09 09:25:11;;;;;;;14.37;10.07;;;;;;;6.30;44.96;152979.41;5065394;28;20442;-74
2022/03/09 09:27:47;;;;;;;11.77;9.40;;;;;;;6.49;44.83;153027.16;5064655;28;20446;-74
2022/03/09 09:30:22;;;;;;;11.17;9.50;;;;;;;6.33;45.03;152985.91;5065145;28;20991;-75
2022/03/09 09:32:58;;;;;;;11.77;9.63;;;;;;;6.33;44.62;152985.91;5066222;28;20450;-75
2022/03/09 09:35:34;;;;;;;14.80;9.10;;;;;;;6.28;46.05;152974.28;5046285;28;20548;-74
2022/03/09 09:38:09;;;;;;;12.70;10.57;;;;;;;6.18;45.54;152947.19;5059050;28;20454;-75
2022/03/09 09:40:47;;;;;;;12.90;10.27;;;;;;;6.29;45.22;152976.88;5050793;28;20445;-75
2022/03/09 09:43:24;;;;;;;19.83;10.97;;;;;;;6.41;45.44;153006.53;5065221;28;21206;-74
2022/03/09 09:45:59;;;;;;;13.20;9.97;;;;;;;6.47;45.69;153022.00;5049221;28;20467;-74
2022/03/09 09:48:35;;;;;;;14.20;10.97;;;;;;;6.47;45.73;153023.31;5049299;28;21022;-75
2022/03/09 09:51:12;;;;;;;17.93;10.47;;;;;;;6.67;44.86;153073.66;5083638;28;20843;-74
2022/03/09 09:53:47;;;;;;;15.30;11.00;;;;;;;6.61;45.02;153059.47;5066354;28;20453;-75
2022/03/09 09:56:24;;;;;;;13.00;10.20;;;;;;;6.74;44.88;153093.03;5053998;28;20441;-75
2022/03/09 09:59:00;;;;;;;16.80;10.70;;;;;;;6.97;44.18;153151.09;5067432;28;20793;-74
2022/03/09 10:01:36;;;;;;;16.17;11.53;;;;;;;6.73;44.69;153089.13;5088476;28;20445;-74
2022/03/09 10:04:11;;;;;;;14.50;11.73;;;;;;;6.62;45.38;153060.72;5047237;28;20453;-75
2022/03/09 10:06:47;;;;;;;14.23;10.50;;;;;;;6.45;45.21;153018.16;5047627;28;20480;-75
2022/03/09 10:09:22;;;;;;;14.83;10.63;;;;;;;6.59;44.82;153054.28;5067376;28;20469;-74
2022/03/09 10:11:59;;;;;;;15.53;11.17;;;;;;;6.64;44.41;153065.91;5071363;28;20443;-75
2022/03/09 10:14:43;;;;;;;15.73;10.70;;;;;;;6.59;45.09;153054.28;5054284;28;20444;-75
2022/03/09 10:17:21;;;;;;;14.47;10.93;;;;;;;6.58;44.98;153050.41;5065179;28;20869;-74
2022/03/09 10:19:58;;;;;;;16.20;11.30;;;;;;;6.47;43.60;153022.00;5063347;28;20545;-75
2022/03/09 10:22:35;;;;;;;13.20;9.60;;;;;;;6.94;43.06;153143.34;5065965;28;20449;-74
2022/03/09 10:25:19;;;;;;;14.67;10.80;;;;;;;6.97;42.20;153149.78;5066480;28;20449;-75
2022/03/09 10:27:57;;;;;;;16.83;11.77;;;;;;;7.06;41.00;153174.34;5062654;28;20445;-75
2022/03/09 10:30:33;;;;;;;14.20;11.63;;;;;;;7.12;41.09;153189.81;5050638;28;20441;-75
2022/03/09 10:33:10;;;;;;;17.87;11.17;;;;;;;7.08;42.08;153179.50;5044483;28;20445;-74
2022/03/09 10:35:47;;;;;;;13.40;11.40;;;;;;;6.94;42.69;153142.03;5066348;28;20810;-75
2022/03/09 10:38:30;;;;;;;16.67;11.13;;;;;;;7.16;42.30;153198.84;5063432;28;20445;-74
2022/03/09 10:41:09;;;;;;;14.63;11.23;;;;;;;7.23;42.41;153216.91;5068236;28;20532;-74
2022/03/09 10:43:50;;;;;;;15.90;10.60;;;;;;;7.50;42.03;153286.66;5054121;28;20953;-75
2022/03/09 10:46:25;;;;;;;13.57;11.33;;;;;;;7.44;41.65;153271.16;5050425;28;20860;-74
2022/03/09 10:49:01;;;;;;;17.80;12.33;;;;;;;7.32;40.35;153241.47;5065289;28;20468;-76
2022/03/09 10:51:38;;;;;;;13.50;10.53;;;;;;;7.12;41.03;153189.81;5052083;28;20437;-77
2022/03/09 10:54:17;;;;;;;16.07;11.33;;;;;;;7.03;41.57;153165.28;5050186;28;20786;-77
2022/03/09 10:57:04;;;;;;;14.37;11.23;;;;;;;7.15;41.78;153197.56;5047997;28;21177;-76
2022/03/09 10:59:48;;;;;;;17.00;11.83;;;;;;;7.49;40.00;153284.13;5050980;28;20489;-76
2022/03/09 11:02:23;;;;;;;20.50;12.43;;;;;;;7.58;40.06;153306.03;5070571;28;20474;-76
2022/03/09 11:05:09;;;;;;;16.43;12.20;;;;;;;7.41;41.17;153262.16;5067980;28;20797;-77
2022/03/09 11:07:44;;;;;;;16.23;11.67;;;;;;;7.61;39.58;153313.78;5067860;28;20449;-76
2022/03/09 11:10:20;;;;;;;16.10;12.23;;;;;;;7.72;40.06;153343.53;5064220;28;20953;-76
2022/03/09 11:12:56;;;;;;;16.90;11.70;;;;;;;7.81;40.93;153366.75;5070087;28;20464;-76
2022/03/09 11:15:33;;;;;;;17.70;12.13;;;;;;;7.90;41.37;153388.72;5053702;28;20452;-74
2022/03/09 11:18:08;;;;;;;19.93;13.10;;;;;;;7.78;40.99;153358.97;5053140;28;20444;-75
2022/03/09 11:20:44;;;;;;;17.87;13.20;;;;;;;7.50;39.21;153286.66;5067670;28;20457;-75
2022/03/09 11:23:21;;;;;;;18.63;13.00;;;;;;;7.52;39.17;153291.81;5063447;28;22401;-74
2022/03/09 11:26:03;;;;;;;16.77;10.60;;;;;;;7.57;39.33;153303.47;5053364;28;20487;-76
2022/03/09 11:29:06;;;;;;;17.57;12.20;;;;;;;7.67;38.75;153329.31;5084194;28;20468;-76
2022/03/09 11:31:46;;;;;;;17.93;11.63;;;;;;;7.62;38.60;153316.41;5093995;22;20805;-76
2022/03/09 11:34:41;;;;;;;15.80;11.97;;;;;;;7.87;37.42;153380.97;5059553;28;20449;-75
2022/03/09 11:37:34;;;;;;;19.73;13.10;;;;;;;8.01;36.33;153417.16;5062855;28;20478;-75
2022/03/09 11:40:22;;;;;;;19.00;13.00;;;;;;;8.21;36.23;153467.50;5063801;28;20456;-75
2022/03/09 11:43:29;;;;;;;17.63;12.30;;;;;;;8.29;36.43;153488.25;5107897;22;20483;-75
2022/03/09 11:46:06;;;;;;;19.47;12.27;;;;;;;8.22;36.54;153471.44;5063274;28;20938;-75
2022/03/09 11:48:55;;;;;;;19.23;12.40;;;;;;;7.90;36.93;153388.72;5049460;28;20991;-76
2022/03/09 11:51:32;;;;;;;16.87;12.10;;;;;;;7.84;35.79;153373.19;5065339;28;20528;-77
2022/03/09 11:54:10;;;;;;;17.30;12.30;;;;;;;7.86;35.91;153378.41;5051145;28;20483;-74
2022/03/09 11:56:52;;;;;;;15.03;10.63;;;;;;;7.96;35.84;153404.22;4968977;22;20478;-74
2022/03/09 11:59:29;;;;;;;15.73;12.23;;;;;;;8.07;36.30;153432.66;5065270;28;20978;-76
2022/03/09 12:02:26;;;;;;;15.80;11.60;;;;;;;7.89;35.39;153387.41;5074169;28;20453;-76
2022/03/09 12:05:04;;;;;;;15.47;11.00;;;;;;;8.00;36.08;153414.53;5053785;28;20449;-76
2022/03/09 12:07:48;;;;;;;15.23;11.07;;;;;;;8.03;34.67;153421.00;5046310;28;20453;-74
2022/03/09 12:10:42;;;;;;;16.60;12.43;;;;;;;8.11;33.44;153441.69;5082317;28;20493;-76